Wenatchee, WA

10:54 AM PST on March 03, 2015 (GMT -0800)
3rd and Elliott | Change Station
CLOSE
Current Station
Personal Weather Station
Location: Wenatchee, WA
Elevation: 787 ft
Nearby Weather Stations

Elev 787 ft 47.43 °N, 120.34 °W | Updated 0 second ago

Clear
Clear
39.9 °F
Feels Like 37 °F
N
3.8
Wind Variable Wind from NE
Gusts 4.5 mph

Today
High -- | Low -- °F
--% Chance of Precip.
Yesterday
High -- | Low -- °F
Precip. -- in
6:38 AM 5:49 PM
Waxing Gibbous, 97% visible
Pressure 30.27 in
Visibility 10.0 miles
Clouds Clear
Windchill 37 °F
Dew Point -12 °F
Humidity 10%
Rainfall 0.00 in
Snow Depth Not available.
UV 3 out of 12
Pollen 5.40 out of 12
Air Quality Not available.
Flu Activity Not available.
METAR KEAT 031755Z AUTO 00000KT 10SM CLR 03/M09 A3024 RMK AO2 SLP249 T00331094 10033 21017 51007

More Conditions Fewer Conditions

Pressure 30.27 in
Visibility 10.0 miles
Clouds Clear
Windchill 37 °F
Dew Point -12 °F
Humidity 10%
Rainfall 0.00 in
Snow Depth Not available.
UV 3 out of 12
Pollen 5.40 out of 12
Air Quality Not available.
Flu Activity Not available.
METAR KEAT 031755Z AUTO 00000KT 10SM CLR 03/M09 A3024 RMK AO2 SLP249 T00331094 10033 21017 51007

More Conditions Fewer Conditions

10-Day Weather Forecast

Almanac

Astronomy

Mar. 03, 2015 Rise Set
Actual Time
Civil Twilight
Nautical Twilight
Astronomical Twilight
Moon
Length of Visible Light
Length of Day
Tomorrow will be .
, % of the Moon is Illuminated

Today's Extremes

State Highs State Lows

Community

WunderPhotos

Upload Photos

1,802,198 photos uploaded!

WunderBlogs® & News

Nearby

Air Quality

  Air Quality AQ Index Pollutant
Not available.

Snow Depth

Station Depth Elevation

Earthquake Activity

City Distance Mag. Time & Date
Minimum magnitude displayed is 2.5.

Coastal Water Temperatures

Place Temperature

Nearby Weather Stations